Waterloo Regional Airport
KALO : rendu visible

Aérodrome :











RETROUVEZ-NOUS SUR...

 
LOGIN :

S'inscrire | Disclaimer

   EN    FR    IT 

 









Légende :    VFR   VFR Marginal   IFR   IFR Intensif   IFR Très Intensif
Visi : 
Plafond : 
>= 8 km
>= 3000ft
5 à 8 km
1000 à 3000 ft
1500m à 5 km
500 à 1000 ft
800 à 1500m
200 à 500 ft
< 800m
< 200 ft
Symboles :   Orages  Brouillard  Fortes neiges  Fortes précipitations  Vent > 20 kt






- Altitude de l'aérodrome : 873 ft
- Code IATA : ALO


KALO - Waterloo Regional

DERNIER METAR :
  • 022254Z AUTO 22018G23KT 10SM CLR 34/18 A2977 RMK AO2 SLP072 T03440183

METARs EXPIRÉS :
  • 022154Z 23016G26KT 10SM CLR 35/18 A2977 RMK AO2 PK WND 22027/2126 SLP073 T03500183
  • 022054Z 21016G24KT 10SM CLR 36/19 A2977 RMK AO2 SLP073 T03560189 58020

TAF KALO
Valide du 02 à 22h jusqu'au 03 à 18h UTC


022135Z 0222/0318 21016G24KT P6SM SKC
FM030300 31007KT P6SM VCTS BKN040CB
FM031100 31005KT P6SM BKN070
FM031400 34007KT P6SM SCT250
FIR KZAU / Amérique du Nord



MET'MAP, la Météo Aéronautique d'un coup d'oeil ! - Copyright ORBIFLY Décembre 2007 - Disclaimer

ORBIFLY MET'MAP TEAM :

Programmation & Développement : Alexandra Zaïnal
Sur une idée originale de : Baudouin d'Aumeries
Assistance à la programmation : Marc-Olivier Méhu
Soutien technique & logistique : Manuel Goepfert

Contact : metmap@orbifly.com




SOURCES & CREDITS :

   NOAA       Earth
Advisory